sensor_id;sensor_type;location;lat;lon;timestamp;temperature;humidity
68691;DHT22;55675;49.588;8.640;2023-02-26T00:00:03;2.00;73.50
68691;DHT22;55675;49.588;8.640;2023-02-26T00:02:32;2.00;73.40
68691;DHT22;55675;49.588;8.640;2023-02-26T00:04:57;2.00;73.50
68691;DHT22;55675;49.588;8.640;2023-02-26T00:07:23;2.00;73.60
68691;DHT22;55675;49.588;8.640;2023-02-26T00:09:50;2.00;73.60
68691;DHT22;55675;49.588;8.640;2023-02-26T00:12:15;2.00;73.80
68691;DHT22;55675;49.588;8.640;2023-02-26T00:14:41;2.00;73.80
68691;DHT22;55675;49.588;8.640;2023-02-26T00:19:32;2.00;73.80
68691;DHT22;55675;49.588;8.640;2023-02-26T00:21:57;2.00;74.20
68691;DHT22;55675;49.588;8.640;2023-02-26T00:24:23;1.90;74.10
68691;DHT22;55675;49.588;8.640;2023-02-26T00:26:48;1.90;74.20
68691;DHT22;55675;49.588;8.640;2023-02-26T00:29:14;1.90;74.20
68691;DHT22;55675;49.588;8.640;2023-02-26T00:31:39;1.90;74.50
68691;DHT22;55675;49.588;8.640;2023-02-26T00:34:05;1.90;74.60
68691;DHT22;55675;49.588;8.640;2023-02-26T00:39:00;1.90;74.90
68691;DHT22;55675;49.588;8.640;2023-02-26T00:41:27;1.90;74.80
68691;DHT22;55675;49.588;8.640;2023-02-26T00:43:53;1.90;74.80
68691;DHT22;55675;49.588;8.640;2023-02-26T00:46:27;1.90;74.90
68691;DHT22;55675;49.588;8.640;2023-02-26T00:48:59;1.90;74.90
68691;DHT22;55675;49.588;8.640;2023-02-26T00:51:40;1.90;74.90
68691;DHT22;55675;49.588;8.640;2023-02-26T00:54:23;1.90;75.00
68691;DHT22;55675;49.588;8.640;2023-02-26T00:56:49;1.90;75.10
68691;DHT22;55675;49.588;8.640;2023-02-26T00:59:15;1.90;75.00
68691;DHT22;55675;49.588;8.640;2023-02-26T01:01:41;1.90;74.90
68691;DHT22;55675;49.588;8.640;2023-02-26T01:04:07;1.80;74.90
68691;DHT22;55675;49.588;8.640;2023-02-26T01:06:33;1.90;75.00
68691;DHT22;55675;49.588;8.640;2023-02-26T01:11:26;1.90;74.90
68691;DHT22;55675;49.588;8.640;2023-02-26T01:13:51;1.90;74.90
68691;DHT22;55675;49.588;8.640;2023-02-26T01:16:19;1.90;74.90
68691;DHT22;55675;49.588;8.640;2023-02-26T01:18:47;1.90;74.80
68691;DHT22;55675;49.588;8.640;2023-02-26T01:21:16;1.90;74.80
68691;DHT22;55675;49.588;8.640;2023-02-26T01:23:44;1.90;74.80
68691;DHT22;55675;49.588;8.640;2023-02-26T01:26:14;1.90;74.90
68691;DHT22;55675;49.588;8.640;2023-02-26T01:28:41;1.90;75.00
68691;DHT22;55675;49.588;8.640;2023-02-26T01:31:09;2.00;75.20
68691;DHT22;55675;49.588;8.640;2023-02-26T01:33:43;2.00;75.10
68691;DHT22;55675;49.588;8.640;2023-02-26T01:36:13;2.00;75.20
68691;DHT22;55675;49.588;8.640;2023-02-26T01:38:43;2.00;75.20
68691;DHT22;55675;49.588;8.640;2023-02-26T01:41:23;2.00;75.30
68691;DHT22;55675;49.588;8.640;2023-02-26T01:43:52;2.00;75.40
68691;DHT22;55675;49.588;8.640;2023-02-26T01:48:51;2.10;75.50
68691;DHT22;55675;49.588;8.640;2023-02-26T01:51:18;2.10;75.50
68691;DHT22;55675;49.588;8.640;2023-02-26T01:53:43;2.20;75.80
68691;DHT22;55675;49.588;8.640;2023-02-26T01:56:14;2.20;75.80
68691;DHT22;55675;49.588;8.640;2023-02-26T01:58:41;2.20;75.50
68691;DHT22;55675;49.588;8.640;2023-02-26T02:01:08;2.20;75.60
68691;DHT22;55675;49.588;8.640;2023-02-26T02:03:34;2.20;75.60
68691;DHT22;55675;49.588;8.640;2023-02-26T02:06:08;2.30;75.80
68691;DHT22;55675;49.588;8.640;2023-02-26T02:08:36;2.30;75.80
68691;DHT22;55675;49.588;8.640;2023-02-26T02:11:02;2.40;75.70
68691;DHT22;55675;49.588;8.640;2023-02-26T02:13:45;2.40;75.70
68691;DHT22;55675;49.588;8.640;2023-02-26T02:18:51;2.50;75.30
68691;DHT22;55675;49.588;8.640;2023-02-26T02:26:49;2.50;75.10
68691;DHT22;55675;49.588;8.640;2023-02-26T02:29:28;2.50;75.00
68691;DHT22;55675;49.588;8.640;2023-02-26T02:31:57;2.50;74.60
68691;DHT22;55675;49.588;8.640;2023-02-26T02:36:57;2.50;74.90
68691;DHT22;55675;49.588;8.640;2023-02-26T02:39:25;2.40;75.10
68691;DHT22;55675;49.588;8.640;2023-02-26T02:41:53;2.40;75.20
68691;DHT22;55675;49.588;8.640;2023-02-26T02:44:20;2.40;75.10
68691;DHT22;55675;49.588;8.640;2023-02-26T02:46:47;2.30;75.20
68691;DHT22;55675;49.588;8.640;2023-02-26T02:49:20;2.30;75.30
68691;DHT22;55675;49.588;8.640;2023-02-26T02:51:51;2.30;75.50
68691;DHT22;55675;49.588;8.640;2023-02-26T02:54:23;2.20;75.10
68691;DHT22;55675;49.588;8.640;2023-02-26T02:56:50;2.20;75.20
68691;DHT22;55675;49.588;8.640;2023-02-26T02:59:20;2.10;75.20
68691;DHT22;55675;49.588;8.640;2023-02-26T03:01:47;2.10;75.50
68691;DHT22;55675;49.588;8.640;2023-02-26T03:04:14;2.00;75.40
68691;DHT22;55675;49.588;8.640;2023-02-26T03:06:40;2.00;75.40
68691;DHT22;55675;49.588;8.640;2023-02-26T03:09:07;2.00;75.60
68691;DHT22;55675;49.588;8.640;2023-02-26T03:11:32;2.00;75.90
68691;DHT22;55675;49.588;8.640;2023-02-26T03:13:58;1.90;76.00
68691;DHT22;55675;49.588;8.640;2023-02-26T03:21:24;1.90;76.10
68691;DHT22;55675;49.588;8.640;2023-02-26T03:26:30;1.80;76.10
68691;DHT22;55675;49.588;8.640;2023-02-26T03:31:26;1.80;76.50
68691;DHT22;55675;49.588;8.640;2023-02-26T03:33:56;1.80;76.70
68691;DHT22;55675;49.588;8.640;2023-02-26T03:36:24;1.80;77.10
68691;DHT22;55675;49.588;8.640;2023-02-26T03:39:08;1.70;77.10
68691;DHT22;55675;49.588;8.640;2023-02-26T03:41:46;1.80;77.30
68691;DHT22;55675;49.588;8.640;2023-02-26T03:44:15;1.70;77.60
68691;DHT22;55675;49.588;8.640;2023-02-26T03:46:44;1.80;77.90
68691;DHT22;55675;49.588;8.640;2023-02-26T03:49:14;1.70;77.80
68691;DHT22;55675;49.588;8.640;2023-02-26T03:51:40;1.70;77.80
68691;DHT22;55675;49.588;8.640;2023-02-26T03:54:08;1.70;78.10
68691;DHT22;55675;49.588;8.640;2023-02-26T03:56:39;1.70;78.10
68691;DHT22;55675;49.588;8.640;2023-02-26T03:59:05;1.70;78.10
68691;DHT22;55675;49.588;8.640;2023-02-26T04:01:36;1.70;78.30
68691;DHT22;55675;49.588;8.640;2023-02-26T04:04:08;1.70;79.20
68691;DHT22;55675;49.588;8.640;2023-02-26T04:06:34;1.60;78.00
68691;DHT22;55675;49.588;8.640;2023-02-26T04:09:00;1.60;78.00
68691;DHT22;55675;49.588;8.640;2023-02-26T04:11:27;1.50;78.10
68691;DHT22;55675;49.588;8.640;2023-02-26T04:13:53;1.50;79.00
68691;DHT22;55675;49.588;8.640;2023-02-26T04:16:19;1.50;78.40
68691;DHT22;55675;49.588;8.640;2023-02-26T04:18:44;1.40;78.80
68691;DHT22;55675;49.588;8.640;2023-02-26T04:21:11;1.40;79.10
68691;DHT22;55675;49.588;8.640;2023-02-26T04:23:37;1.40;79.50
68691;DHT22;55675;49.588;8.640;2023-02-26T04:26:03;1.40;79.80
68691;DHT22;55675;49.588;8.640;2023-02-26T04:28:28;1.30;79.60
68691;DHT22;55675;49.588;8.640;2023-02-26T04:30:54;1.30;79.70
68691;DHT22;55675;49.588;8.640;2023-02-26T04:33:20;1.30;79.80
68691;DHT22;55675;49.588;8.640;2023-02-26T04:35:45;1.30;79.80
68691;DHT22;55675;49.588;8.640;2023-02-26T04:38:11;1.40;79.70
68691;DHT22;55675;49.588;8.640;2023-02-26T04:40:36;1.30;79.70
68691;DHT22;55675;49.588;8.640;2023-02-26T04:43:02;1.40;79.70
68691;DHT22;55675;49.588;8.640;2023-02-26T04:45:27;1.40;79.80
68691;DHT22;55675;49.588;8.640;2023-02-26T04:47:52;1.40;79.70
68691;DHT22;55675;49.588;8.640;2023-02-26T04:50:18;1.40;79.70
68691;DHT22;55675;49.588;8.640;2023-02-26T04:52:43;1.40;79.70
68691;DHT22;55675;49.588;8.640;2023-02-26T04:55:09;1.40;79.80
68691;DHT22;55675;49.588;8.640;2023-02-26T04:57:34;1.40;79.80
68691;DHT22;55675;49.588;8.640;2023-02-26T05:00:00;1.40;79.90
68691;DHT22;55675;49.588;8.640;2023-02-26T05:02:25;1.40;79.90
68691;DHT22;55675;49.588;8.640;2023-02-26T05:04:51;1.40;79.90
68691;DHT22;55675;49.588;8.640;2023-02-26T05:07:16;1.40;79.90
68691;DHT22;55675;49.588;8.640;2023-02-26T05:09:42;1.30;79.90
68691;DHT22;55675;49.588;8.640;2023-02-26T05:12:07;1.40;79.80
68691;DHT22;55675;49.588;8.640;2023-02-26T05:14:32;1.40;79.90
68691;DHT22;55675;49.588;8.640;2023-02-26T05:16:58;1.40;80.00
68691;DHT22;55675;49.588;8.640;2023-02-26T05:19:23;1.40;79.90
68691;DHT22;55675;49.588;8.640;2023-02-26T05:21:49;1.40;80.00
68691;DHT22;55675;49.588;8.640;2023-02-26T05:24:14;1.40;80.10
68691;DHT22;55675;49.588;8.640;2023-02-26T05:26:40;1.30;80.00
68691;DHT22;55675;49.588;8.640;2023-02-26T05:29:06;1.30;80.80
68691;DHT22;55675;49.588;8.640;2023-02-26T05:31:31;1.30;80.20
68691;DHT22;55675;49.588;8.640;2023-02-26T05:33:57;1.30;80.10
68691;DHT22;55675;49.588;8.640;2023-02-26T05:36:22;1.30;80.00
68691;DHT22;55675;49.588;8.640;2023-02-26T05:38:48;1.30;80.20
68691;DHT22;55675;49.588;8.640;2023-02-26T05:41:13;1.30;80.30
68691;DHT22;55675;49.588;8.640;2023-02-26T05:43:38;1.30;80.30
68691;DHT22;55675;49.588;8.640;2023-02-26T05:46:04;1.30;80.20
68691;DHT22;55675;49.588;8.640;2023-02-26T05:48:30;1.30;80.20
68691;DHT22;55675;49.588;8.640;2023-02-26T05:50:55;1.30;80.20
68691;DHT22;55675;49.588;8.640;2023-02-26T05:53:20;1.30;80.90
68691;DHT22;55675;49.588;8.640;2023-02-26T05:55:46;1.30;80.30
68691;DHT22;55675;49.588;8.640;2023-02-26T05:58:11;1.30;80.30
68691;DHT22;55675;49.588;8.640;2023-02-26T06:00:37;1.30;80.30
68691;DHT22;55675;49.588;8.640;2023-02-26T06:03:03;1.30;80.20
68691;DHT22;55675;49.588;8.640;2023-02-26T06:05:28;1.30;80.20
68691;DHT22;55675;49.588;8.640;2023-02-26T06:07:53;1.30;80.40
68691;DHT22;55675;49.588;8.640;2023-02-26T06:10:19;1.30;80.20
68691;DHT22;55675;49.588;8.640;2023-02-26T06:12:44;1.30;80.40
68691;DHT22;55675;49.588;8.640;2023-02-26T06:15:10;1.30;80.40
68691;DHT22;55675;49.588;8.640;2023-02-26T06:17:36;1.30;80.40
68691;DHT22;55675;49.588;8.640;2023-02-26T06:20:02;1.20;80.40
68691;DHT22;55675;49.588;8.640;2023-02-26T06:22:28;1.30;80.60
68691;DHT22;55675;49.588;8.640;2023-02-26T06:24:53;1.30;80.60
68691;DHT22;55675;49.588;8.640;2023-02-26T06:27:20;1.30;80.80
68691;DHT22;55675;49.588;8.640;2023-02-26T06:29:45;1.30;80.70
68691;DHT22;55675;49.588;8.640;2023-02-26T06:32:11;1.30;80.70
68691;DHT22;55675;49.588;8.640;2023-02-26T06:34:36;1.30;81.00
68691;DHT22;55675;49.588;8.640;2023-02-26T06:37:01;1.30;81.20
68691;DHT22;55675;49.588;8.640;2023-02-26T06:39:27;1.30;81.20
68691;DHT22;55675;49.588;8.640;2023-02-26T06:41:52;1.30;81.20
68691;DHT22;55675;49.588;8.640;2023-02-26T06:44:18;1.30;81.10
68691;DHT22;55675;49.588;8.640;2023-02-26T06:46:43;1.30;81.20
68691;DHT22;55675;49.588;8.640;2023-02-26T06:49:09;1.40;81.20
68691;DHT22;55675;49.588;8.640;2023-02-26T06:51:34;1.40;81.20
68691;DHT22;55675;49.588;8.640;2023-02-26T06:54:00;1.40;81.00
68691;DHT22;55675;49.588;8.640;2023-02-26T06:56:25;1.40;80.90
68691;DHT22;55675;49.588;8.640;2023-02-26T06:58:51;1.50;80.90
68691;DHT22;55675;49.588;8.640;2023-02-26T07:01:16;1.50;80.90
68691;DHT22;55675;49.588;8.640;2023-02-26T07:03:42;1.50;80.80
68691;DHT22;55675;49.588;8.640;2023-02-26T07:06:08;1.50;80.80
68691;DHT22;55675;49.588;8.640;2023-02-26T07:08:34;1.60;80.90
68691;DHT22;55675;49.588;8.640;2023-02-26T07:10:59;1.70;80.80
68691;DHT22;55675;49.588;8.640;2023-02-26T07:13:25;1.80;80.20
68691;DHT22;55675;49.588;8.640;2023-02-26T07:15:50;1.80;79.80
68691;DHT22;55675;49.588;8.640;2023-02-26T07:18:16;1.90;79.70
68691;DHT22;55675;49.588;8.640;2023-02-26T07:20:41;2.10;79.80
68691;DHT22;55675;49.588;8.640;2023-02-26T07:23:07;2.20;79.70
68691;DHT22;55675;49.588;8.640;2023-02-26T07:25:33;2.30;79.10
68691;DHT22;55675;49.588;8.640;2023-02-26T07:27:58;2.40;78.30
68691;DHT22;55675;49.588;8.640;2023-02-26T07:30:24;2.50;78.20
68691;DHT22;55675;49.588;8.640;2023-02-26T07:32:50;2.60;77.70
68691;DHT22;55675;49.588;8.640;2023-02-26T07:35:15;2.50;77.30
68691;DHT22;55675;49.588;8.640;2023-02-26T07:37:41;2.50;77.30
68691;DHT22;55675;49.588;8.640;2023-02-26T07:40:07;2.50;77.40
68691;DHT22;55675;49.588;8.640;2023-02-26T07:42:32;2.60;77.00
68691;DHT22;55675;49.588;8.640;2023-02-26T07:44:58;2.60;76.90
68691;DHT22;55675;49.588;8.640;2023-02-26T07:47:24;2.70;76.60
68691;DHT22;55675;49.588;8.640;2023-02-26T07:49:49;2.80;76.00
68691;DHT22;55675;49.588;8.640;2023-02-26T07:52:14;2.90;75.90
68691;DHT22;55675;49.588;8.640;2023-02-26T07:54:40;3.10;75.60
68691;DHT22;55675;49.588;8.640;2023-02-26T07:57:06;3.30;75.80
68691;DHT22;55675;49.588;8.640;2023-02-26T07:59:31;3.40;75.00
68691;DHT22;55675;49.588;8.640;2023-02-26T08:01:57;3.50;74.20
68691;DHT22;55675;49.588;8.640;2023-02-26T08:04:23;3.70;73.60
68691;DHT22;55675;49.588;8.640;2023-02-26T08:06:48;3.70;73.20
68691;DHT22;55675;49.588;8.640;2023-02-26T08:09:14;3.90;73.50
68691;DHT22;55675;49.588;8.640;2023-02-26T08:11:39;4.10;73.50
68691;DHT22;55675;49.588;8.640;2023-02-26T08:14:07;4.20;71.70
68691;DHT22;55675;49.588;8.640;2023-02-26T08:16:33;4.30;71.90
68691;DHT22;55675;49.588;8.640;2023-02-26T08:18:58;4.40;70.50
68691;DHT22;55675;49.588;8.640;2023-02-26T08:21:24;4.50;69.90
68691;DHT22;55675;49.588;8.640;2023-02-26T08:23:49;4.70;69.20
68691;DHT22;55675;49.588;8.640;2023-02-26T08:26:16;4.80;68.60
68691;DHT22;55675;49.588;8.640;2023-02-26T08:28:42;4.80;67.30
68691;DHT22;55675;49.588;8.640;2023-02-26T08:31:07;4.80;66.90
68691;DHT22;55675;49.588;8.640;2023-02-26T08:33:33;4.80;68.20
68691;DHT22;55675;49.588;8.640;2023-02-26T08:35:58;4.80;68.70
68691;DHT22;55675;49.588;8.640;2023-02-26T08:38:26;4.80;66.70
68691;DHT22;55675;49.588;8.640;2023-02-26T08:40:52;4.80;66.50
68691;DHT22;55675;49.588;8.640;2023-02-26T08:43:18;4.80;65.40
68691;DHT22;55675;49.588;8.640;2023-02-26T08:45:43;4.70;65.60
68691;DHT22;55675;49.588;8.640;2023-02-26T08:48:09;4.70;65.40
68691;DHT22;55675;49.588;8.640;2023-02-26T08:50:34;4.70;65.60
68691;DHT22;55675;49.588;8.640;2023-02-26T08:53:00;4.60;65.70
68691;DHT22;55675;49.588;8.640;2023-02-26T08:55:25;4.60;65.70
68691;DHT22;55675;49.588;8.640;2023-02-26T08:57:51;4.60;66.00
68691;DHT22;55675;49.588;8.640;2023-02-26T09:00:16;4.80;66.20
68691;DHT22;55675;49.588;8.640;2023-02-26T09:02:42;4.90;66.00
68691;DHT22;55675;49.588;8.640;2023-02-26T09:05:08;5.10;65.80
68691;DHT22;55675;49.588;8.640;2023-02-26T09:07:34;5.30;66.40
68691;DHT22;55675;49.588;8.640;2023-02-26T09:09:59;5.40;65.00
68691;DHT22;55675;49.588;8.640;2023-02-26T09:12:25;5.60;64.10
68691;DHT22;55675;49.588;8.640;2023-02-26T09:14:50;5.60;64.50
68691;DHT22;55675;49.588;8.640;2023-02-26T09:17:16;5.80;64.10
68691;DHT22;55675;49.588;8.640;2023-02-26T09:19:41;5.90;63.00
68691;DHT22;55675;49.588;8.640;2023-02-26T09:22:07;5.80;61.80
68691;DHT22;55675;49.588;8.640;2023-02-26T09:24:32;5.70;61.70
68691;DHT22;55675;49.588;8.640;2023-02-26T09:26:58;5.60;61.90
68691;DHT22;55675;49.588;8.640;2023-02-26T09:29:25;5.60;63.00
68691;DHT22;55675;49.588;8.640;2023-02-26T09:31:50;5.60;63.00
68691;DHT22;55675;49.588;8.640;2023-02-26T09:34:16;5.60;62.30
68691;DHT22;55675;49.588;8.640;2023-02-26T09:36:41;5.60;62.80
68691;DHT22;55675;49.588;8.640;2023-02-26T09:39:08;5.60;62.30
68691;DHT22;55675;49.588;8.640;2023-02-26T09:41:37;5.70;62.80
68691;DHT22;55675;49.588;8.640;2023-02-26T09:44:09;5.70;62.60
68691;DHT22;55675;49.588;8.640;2023-02-26T09:46:39;5.70;62.60
68691;DHT22;55675;49.588;8.640;2023-02-26T09:51:34;5.80;62.90
68691;DHT22;55675;49.588;8.640;2023-02-26T09:54:01;5.80;62.20
68691;DHT22;55675;49.588;8.640;2023-02-26T09:56:31;5.70;61.60
68691;DHT22;55675;49.588;8.640;2023-02-26T09:58:57;5.60;61.50
68691;DHT22;55675;49.588;8.640;2023-02-26T10:01:25;5.60;61.80
68691;DHT22;55675;49.588;8.640;2023-02-26T10:12:11;5.50;61.40
68691;DHT22;55675;49.588;8.640;2023-02-26T10:14:42;5.60;61.80
68691;DHT22;55675;49.588;8.640;2023-02-26T10:17:22;5.60;61.10
68691;DHT22;55675;49.588;8.640;2023-02-26T10:19:51;5.50;60.70
68691;DHT22;55675;49.588;8.640;2023-02-26T10:22:26;5.60;61.30
68691;DHT22;55675;49.588;8.640;2023-02-26T10:30:13;5.70;60.00
68691;DHT22;55675;49.588;8.640;2023-02-26T10:32:59;5.70;59.90
68691;DHT22;55675;49.588;8.640;2023-02-26T10:35:26;5.80;61.20
68691;DHT22;55675;49.588;8.640;2023-02-26T10:37:56;5.90;60.20
68691;DHT22;55675;49.588;8.640;2023-02-26T10:43:18;6.20;59.70
68691;DHT22;55675;49.588;8.640;2023-02-26T10:50:56;7.10;57.40
68691;DHT22;55675;49.588;8.640;2023-02-26T10:53:22;7.20;56.10
68691;DHT22;55675;49.588;8.640;2023-02-26T10:56:07;7.30;56.00
68691;DHT22;55675;49.588;8.640;2023-02-26T10:58:34;7.40;56.40
68691;DHT22;55675;49.588;8.640;2023-02-26T11:00:59;7.60;56.40
68691;DHT22;55675;49.588;8.640;2023-02-26T11:05:54;7.60;55.10
68691;DHT22;55675;49.588;8.640;2023-02-26T11:08:25;7.50;54.90
68691;DHT22;55675;49.588;8.640;2023-02-26T11:10:55;7.40;55.20
68691;DHT22;55675;49.588;8.640;2023-02-26T11:13:24;7.40;56.40
68691;DHT22;55675;49.588;8.640;2023-02-26T11:15:51;7.50;55.50
68691;DHT22;55675;49.588;8.640;2023-02-26T11:18:25;7.70;56.30
68691;DHT22;55675;49.588;8.640;2023-02-26T11:20:53;8.10;54.70
68691;DHT22;55675;49.588;8.640;2023-02-26T11:23:19;8.20;53.40
68691;DHT22;55675;49.588;8.640;2023-02-26T11:25:46;8.30;53.20
68691;DHT22;55675;49.588;8.640;2023-02-26T11:28:18;8.30;53.10
68691;DHT22;55675;49.588;8.640;2023-02-26T11:30:44;8.30;52.00
68691;DHT22;55675;49.588;8.640;2023-02-26T11:33:17;8.20;52.50
68691;DHT22;55675;49.588;8.640;2023-02-26T11:35:45;8.10;52.60
68691;DHT22;55675;49.588;8.640;2023-02-26T11:38:14;8.10;53.10
68691;DHT22;55675;49.588;8.640;2023-02-26T11:40:40;8.10;53.10
68691;DHT22;55675;49.588;8.640;2023-02-26T11:43:07;8.10;53.00
68691;DHT22;55675;49.588;8.640;2023-02-26T11:45:36;8.10;52.60
68691;DHT22;55675;49.588;8.640;2023-02-26T11:48:04;8.20;52.90
68691;DHT22;55675;49.588;8.640;2023-02-26T11:50:32;8.30;53.30
68691;DHT22;55675;49.588;8.640;2023-02-26T11:53:05;8.40;53.10
68691;DHT22;55675;49.588;8.640;2023-02-26T11:55:33;8.60;52.30
68691;DHT22;55675;49.588;8.640;2023-02-26T11:58:00;8.80;51.40
68691;DHT22;55675;49.588;8.640;2023-02-26T12:00:30;8.80;50.30
68691;DHT22;55675;49.588;8.640;2023-02-26T12:02:59;8.90;50.40
68691;DHT22;55675;49.588;8.640;2023-02-26T12:05:26;8.90;50.50
68691;DHT22;55675;49.588;8.640;2023-02-26T12:07:52;8.90;50.20
68691;DHT22;55675;49.588;8.640;2023-02-26T12:10:20;8.90;50.00
68691;DHT22;55675;49.588;8.640;2023-02-26T12:12:54;8.90;50.40
68691;DHT22;55675;49.588;8.640;2023-02-26T12:21:13;9.00;49.30
68691;DHT22;55675;49.588;8.640;2023-02-26T12:29:13;9.10;49.90
68691;DHT22;55675;49.588;8.640;2023-02-26T12:42:29;9.20;49.00
68691;DHT22;55675;49.588;8.640;2023-02-26T12:47:36;9.70;48.90
68691;DHT22;55675;49.588;8.640;2023-02-26T12:50:21;10.10;48.90
68691;DHT22;55675;49.588;8.640;2023-02-26T13:03:24;9.80;46.50
68691;DHT22;55675;49.588;8.640;2023-02-26T13:08:45;10.00;46.20
68691;DHT22;55675;49.588;8.640;2023-02-26T13:11:29;10.10;46.10
68691;DHT22;55675;49.588;8.640;2023-02-26T13:14:06;10.30;45.60
68691;DHT22;55675;49.588;8.640;2023-02-26T13:16:43;10.60;46.30
68691;DHT22;55675;49.588;8.640;2023-02-26T13:19:47;10.90;45.70
68691;DHT22;55675;49.588;8.640;2023-02-26T13:22:11;11.00;45.00
68691;DHT22;55675;49.588;8.640;2023-02-26T13:24:39;11.10;44.40
68691;DHT22;55675;49.588;8.640;2023-02-26T13:27:06;10.90;44.10
68691;DHT22;55675;49.588;8.640;2023-02-26T13:29:34;10.90;43.10
68691;DHT22;55675;49.588;8.640;2023-02-26T13:32:05;10.70;43.00
68691;DHT22;55675;49.588;8.640;2023-02-26T13:37:09;10.60;43.80
68691;DHT22;55675;49.588;8.640;2023-02-26T13:39:47;10.50;43.30
68691;DHT22;55675;49.588;8.640;2023-02-26T13:42:26;10.20;42.90
68691;DHT22;55675;49.588;8.640;2023-02-26T13:47:27;9.60;42.90
68691;DHT22;55675;49.588;8.640;2023-02-26T13:50:04;9.50;43.40
68691;DHT22;55675;49.588;8.640;2023-02-26T13:52:48;9.30;43.50
68691;DHT22;55675;49.588;8.640;2023-02-26T13:55:34;9.30;44.20
68691;DHT22;55675;49.588;8.640;2023-02-26T13:58:05;9.30;44.40
68691;DHT22;55675;49.588;8.640;2023-02-26T14:00:44;9.40;44.80
68691;DHT22;55675;49.588;8.640;2023-02-26T14:03:22;9.50;44.70
68691;DHT22;55675;49.588;8.640;2023-02-26T14:05:56;9.40;44.10
68691;DHT22;55675;49.588;8.640;2023-02-26T14:08:41;9.20;44.10
68691;DHT22;55675;49.588;8.640;2023-02-26T14:13:41;8.90;45.40
68691;DHT22;55675;49.588;8.640;2023-02-26T14:16:27;8.90;45.80
68691;DHT22;55675;49.588;8.640;2023-02-26T14:18:53;8.70;45.60
68691;DHT22;55675;49.588;8.640;2023-02-26T14:21:32;8.60;46.00
68691;DHT22;55675;49.588;8.640;2023-02-26T14:24:21;8.60;46.40
68691;DHT22;55675;49.588;8.640;2023-02-26T14:26:49;8.70;46.10
68691;DHT22;55675;49.588;8.640;2023-02-26T14:34:15;9.10;44.90
68691;DHT22;55675;49.588;8.640;2023-02-26T14:36:47;9.10;44.70
68691;DHT22;55675;49.588;8.640;2023-02-26T14:39:21;9.00;44.00
68691;DHT22;55675;49.588;8.640;2023-02-26T14:41:48;8.80;43.90
68691;DHT22;55675;49.588;8.640;2023-02-26T14:44:24;8.60;44.10
68691;DHT22;55675;49.588;8.640;2023-02-26T14:46:50;8.40;44.60
68691;DHT22;55675;49.588;8.640;2023-02-26T14:49:18;8.30;45.20
68691;DHT22;55675;49.588;8.640;2023-02-26T14:51:52;8.30;45.20
68691;DHT22;55675;49.588;8.640;2023-02-26T14:57:34;8.20;45.30
68691;DHT22;55675;49.588;8.640;2023-02-26T15:00:25;8.30;45.80
68691;DHT22;55675;49.588;8.640;2023-02-26T15:15:43;9.10;46.50
68691;DHT22;55675;49.588;8.640;2023-02-26T15:23:40;17.40;36.20
68691;DHT22;55675;49.588;8.640;2023-02-26T15:26:06;19.70;32.70
68691;DHT22;55675;49.588;8.640;2023-02-26T15:28:37;21.30;30.60
68691;DHT22;55675;49.588;8.640;2023-02-26T15:31:03;22.80;28.10
68691;DHT22;55675;49.588;8.640;2023-02-26T15:33:30;23.10;24.00
68691;DHT22;55675;49.588;8.640;2023-02-26T15:35:56;22.10;24.90
68691;DHT22;55675;49.588;8.640;2023-02-26T15:38:22;20.90;24.90
68691;DHT22;55675;49.588;8.640;2023-02-26T15:40:48;20.20;25.40
68691;DHT22;55675;49.588;8.640;2023-02-26T15:43:19;19.30;25.80
68691;DHT22;55675;49.588;8.640;2023-02-26T15:45:46;18.60;25.00
68691;DHT22;55675;49.588;8.640;2023-02-26T15:50:42;16.80;26.90
68691;DHT22;55675;49.588;8.640;2023-02-26T15:53:09;17.80;27.40
68691;DHT22;55675;49.588;8.640;2023-02-26T15:55:37;19.10;25.80
68691;DHT22;55675;49.588;8.640;2023-02-26T15:58:06;20.00;24.30
68691;DHT22;55675;49.588;8.640;2023-02-26T16:00:33;20.30;23.70
68691;DHT22;55675;49.588;8.640;2023-02-26T16:02:59;20.50;23.30
68691;DHT22;55675;49.588;8.640;2023-02-26T16:05:25;19.20;22.80
68691;DHT22;55675;49.588;8.640;2023-02-26T16:07:51;17.80;24.00
68691;DHT22;55675;49.588;8.640;2023-02-26T16:10:27;16.30;24.90
68691;DHT22;55675;49.588;8.640;2023-02-26T16:12:53;15.20;26.30
68691;DHT22;55675;49.588;8.640;2023-02-26T16:15:26;14.90;27.30
68691;DHT22;55675;49.588;8.640;2023-02-26T16:17:52;14.50;27.40
68691;DHT22;55675;49.588;8.640;2023-02-26T16:20:19;13.70;28.10
68691;DHT22;55675;49.588;8.640;2023-02-26T16:22:49;12.90;29.30
68691;DHT22;55675;49.588;8.640;2023-02-26T16:27:56;11.90;31.00
68691;DHT22;55675;49.588;8.640;2023-02-26T16:30:23;11.80;31.70
68691;DHT22;55675;49.588;8.640;2023-02-26T16:32:51;11.30;32.00
68691;DHT22;55675;49.588;8.640;2023-02-26T16:35:19;11.20;33.20
68691;DHT22;55675;49.588;8.640;2023-02-26T16:37:47;11.20;33.60
68691;DHT22;55675;49.588;8.640;2023-02-26T16:40:24;10.80;33.70
68691;DHT22;55675;49.588;8.640;2023-02-26T16:45:22;9.70;35.20
68691;DHT22;55675;49.588;8.640;2023-02-26T16:47:50;9.20;36.00
68691;DHT22;55675;49.588;8.640;2023-02-26T16:50:17;8.80;36.70
68691;DHT22;55675;49.588;8.640;2023-02-26T16:52:44;8.50;38.10
68691;DHT22;55675;49.588;8.640;2023-02-26T16:55:10;8.10;38.30
68691;DHT22;55675;49.588;8.640;2023-02-26T16:57:42;7.90;39.60
68691;DHT22;55675;49.588;8.640;2023-02-26T17:00:16;7.60;40.10
68691;DHT22;55675;49.588;8.640;2023-02-26T17:02:45;7.40;40.20
68691;DHT22;55675;49.588;8.640;2023-02-26T17:05:29;7.30;40.20
68691;DHT22;55675;49.588;8.640;2023-02-26T17:08:14;7.10;41.20
68691;DHT22;55675;49.588;8.640;2023-02-26T17:10:44;7.00;41.30
68691;DHT22;55675;49.588;8.640;2023-02-26T17:13:12;6.90;42.60
68691;DHT22;55675;49.588;8.640;2023-02-26T17:15:39;6.70;43.20
68691;DHT22;55675;49.588;8.640;2023-02-26T17:18:05;6.50;42.80
68691;DHT22;55675;49.588;8.640;2023-02-26T17:20:31;6.40;43.00
68691;DHT22;55675;49.588;8.640;2023-02-26T17:22:57;6.20;43.90
68691;DHT22;55675;49.588;8.640;2023-02-26T17:25:23;6.10;43.70
68691;DHT22;55675;49.588;8.640;2023-02-26T17:27:50;6.10;43.30
68691;DHT22;55675;49.588;8.640;2023-02-26T17:30:17;6.10;44.00
68691;DHT22;55675;49.588;8.640;2023-02-26T17:32:43;6.00;44.50
68691;DHT22;55675;49.588;8.640;2023-02-26T17:35:12;6.00;44.60
68691;DHT22;55675;49.588;8.640;2023-02-26T17:37:38;5.90;44.70
68691;DHT22;55675;49.588;8.640;2023-02-26T17:40:04;5.90;45.20
68691;DHT22;55675;49.588;8.640;2023-02-26T17:42:35;5.90;45.60
68691;DHT22;55675;49.588;8.640;2023-02-26T17:45:01;5.80;46.00
68691;DHT22;55675;49.588;8.640;2023-02-26T17:47:26;5.80;45.70
68691;DHT22;55675;49.588;8.640;2023-02-26T17:49:52;5.80;45.80
68691;DHT22;55675;49.588;8.640;2023-02-26T17:52:18;5.70;45.90
68691;DHT22;55675;49.588;8.640;2023-02-26T17:54:43;5.70;45.70
68691;DHT22;55675;49.588;8.640;2023-02-26T17:57:12;5.70;45.80
68691;DHT22;55675;49.588;8.640;2023-02-26T17:59:39;5.70;45.60
68691;DHT22;55675;49.588;8.640;2023-02-26T18:02:21;5.70;45.50
68691;DHT22;55675;49.588;8.640;2023-02-26T18:04:47;5.60;45.40
68691;DHT22;55675;49.588;8.640;2023-02-26T18:07:13;5.50;45.10